sensor_id;sensor_type;location;lat;lon;timestamp;P1;durP1;ratioP1;P2;durP2;ratioP2
30647;SDS011;17683;53.360;9.736;2024-03-02T00:01:25;19.35;;;13.75;;
30647;SDS011;17683;53.360;9.736;2024-03-02T00:03:51;21.00;;;13.55;;
30647;SDS011;17683;53.360;9.736;2024-03-02T00:06:19;19.27;;;13.40;;
30647;SDS011;17683;53.360;9.736;2024-03-02T00:08:46;21.10;;;14.77;;
30647;SDS011;17683;53.360;9.736;2024-03-02T00:11:12;19.83;;;14.13;;
30647;SDS011;17683;53.360;9.736;2024-03-02T00:13:40;21.85;;;12.80;;
30647;SDS011;17683;53.360;9.736;2024-03-02T00:16:06;22.48;;;13.43;;
30647;SDS011;17683;53.360;9.736;2024-03-02T00:18:32;19.70;;;13.98;;
30647;SDS011;17683;53.360;9.736;2024-03-02T00:20:59;25.08;;;14.15;;
30647;SDS011;17683;53.360;9.736;2024-03-02T00:23:29;21.27;;;14.00;;
30647;SDS011;17683;53.360;9.736;2024-03-02T00:25:56;19.05;;;13.40;;
30647;SDS011;17683;53.360;9.736;2024-03-02T00:30:59;21.65;;;13.18;;
30647;SDS011;17683;53.360;9.736;2024-03-02T00:33:32;21.13;;;14.07;;
30647;SDS011;17683;53.360;9.736;2024-03-02T00:35:59;25.23;;;14.82;;
30647;SDS011;17683;53.360;9.736;2024-03-02T00:38:25;22.90;;;14.40;;
30647;SDS011;17683;53.360;9.736;2024-03-02T00:40:51;23.30;;;14.07;;
30647;SDS011;17683;53.360;9.736;2024-03-02T00:45:54;21.45;;;14.40;;
30647;SDS011;17683;53.360;9.736;2024-03-02T00:48:20;24.10;;;14.60;;
30647;SDS011;17683;53.360;9.736;2024-03-02T00:50:49;21.63;;;14.98;;
30647;SDS011;17683;53.360;9.736;2024-03-02T00:53:17;22.20;;;14.70;;
30647;SDS011;17683;53.360;9.736;2024-03-02T00:55:49;21.45;;;14.30;;
30647;SDS011;17683;53.360;9.736;2024-03-02T00:58:15;23.60;;;14.93;;
30647;SDS011;17683;53.360;9.736;2024-03-02T01:00:41;20.63;;;14.18;;
30647;SDS011;17683;53.360;9.736;2024-03-02T01:03:07;21.15;;;14.90;;
30647;SDS011;17683;53.360;9.736;2024-03-02T01:05:32;24.98;;;15.75;;
30647;SDS011;17683;53.360;9.736;2024-03-02T01:07:58;20.75;;;14.98;;
30647;SDS011;17683;53.360;9.736;2024-03-02T01:10:24;20.48;;;14.23;;
30647;SDS011;17683;53.360;9.736;2024-03-02T01:12:51;20.42;;;14.32;;
30647;SDS011;17683;53.360;9.736;2024-03-02T01:15:17;22.95;;;14.88;;
30647;SDS011;17683;53.360;9.736;2024-03-02T01:17:42;22.38;;;14.98;;
30647;SDS011;17683;53.360;9.736;2024-03-02T01:20:08;23.50;;;15.20;;
30647;SDS011;17683;53.360;9.736;2024-03-02T01:22:35;25.08;;;15.85;;
30647;SDS011;17683;53.360;9.736;2024-03-02T01:25:01;21.60;;;15.00;;
30647;SDS011;17683;53.360;9.736;2024-03-02T01:27:27;21.30;;;15.25;;
30647;SDS011;17683;53.360;9.736;2024-03-02T01:29:53;21.73;;;13.60;;
30647;SDS011;17683;53.360;9.736;2024-03-02T01:32:19;21.15;;;14.63;;
30647;SDS011;17683;53.360;9.736;2024-03-02T01:34:45;22.52;;;14.10;;
30647;SDS011;17683;53.360;9.736;2024-03-02T01:37:11;24.83;;;14.93;;
30647;SDS011;17683;53.360;9.736;2024-03-02T01:39:37;22.42;;;14.77;;
30647;SDS011;17683;53.360;9.736;2024-03-02T01:42:02;19.92;;;14.07;;
30647;SDS011;17683;53.360;9.736;2024-03-02T01:44:28;22.50;;;14.82;;
30647;SDS011;17683;53.360;9.736;2024-03-02T01:46:54;24.15;;;15.43;;
30647;SDS011;17683;53.360;9.736;2024-03-02T01:49:20;22.60;;;14.55;;
30647;SDS011;17683;53.360;9.736;2024-03-02T01:51:46;19.55;;;13.82;;
30647;SDS011;17683;53.360;9.736;2024-03-02T01:54:11;19.05;;;13.73;;
30647;SDS011;17683;53.360;9.736;2024-03-02T01:56:37;23.95;;;15.55;;
30647;SDS011;17683;53.360;9.736;2024-03-02T01:59:03;20.38;;;13.93;;
30647;SDS011;17683;53.360;9.736;2024-03-02T02:01:29;22.08;;;15.73;;
30647;SDS011;17683;53.360;9.736;2024-03-02T02:03:56;20.95;;;14.35;;
30647;SDS011;17683;53.360;9.736;2024-03-02T02:06:21;23.42;;;14.60;;
30647;SDS011;17683;53.360;9.736;2024-03-02T02:08:47;22.50;;;14.27;;
30647;SDS011;17683;53.360;9.736;2024-03-02T02:11:16;22.15;;;14.48;;
30647;SDS011;17683;53.360;9.736;2024-03-02T02:13:42;20.88;;;14.38;;
30647;SDS011;17683;53.360;9.736;2024-03-02T02:16:08;22.55;;;14.23;;
30647;SDS011;17683;53.360;9.736;2024-03-02T02:18:34;18.58;;;13.63;;
30647;SDS011;17683;53.360;9.736;2024-03-02T02:21:01;24.20;;;15.15;;
30647;SDS011;17683;53.360;9.736;2024-03-02T02:23:27;19.50;;;13.77;;
30647;SDS011;17683;53.360;9.736;2024-03-02T02:25:53;21.35;;;14.38;;
30647;SDS011;17683;53.360;9.736;2024-03-02T02:28:18;21.33;;;14.02;;
30647;SDS011;17683;53.360;9.736;2024-03-02T02:30:44;20.52;;;13.95;;
30647;SDS011;17683;53.360;9.736;2024-03-02T02:33:10;20.70;;;13.70;;
30647;SDS011;17683;53.360;9.736;2024-03-02T02:35:36;20.77;;;14.27;;
30647;SDS011;17683;53.360;9.736;2024-03-02T02:38:01;19.77;;;13.85;;
30647;SDS011;17683;53.360;9.736;2024-03-02T02:40:28;26.17;;;14.77;;
30647;SDS011;17683;53.360;9.736;2024-03-02T02:42:57;23.15;;;14.98;;
30647;SDS011;17683;53.360;9.736;2024-03-02T02:45:24;22.60;;;15.88;;
30647;SDS011;17683;53.360;9.736;2024-03-02T02:47:50;21.45;;;15.50;;
30647;SDS011;17683;53.360;9.736;2024-03-02T02:50:16;22.50;;;15.20;;
30647;SDS011;17683;53.360;9.736;2024-03-02T02:52:42;20.08;;;14.05;;
30647;SDS011;17683;53.360;9.736;2024-03-02T02:55:09;23.40;;;15.02;;
30647;SDS011;17683;53.360;9.736;2024-03-02T02:57:36;20.80;;;14.60;;
30647;SDS011;17683;53.360;9.736;2024-03-02T03:02:40;22.15;;;15.15;;
30647;SDS011;17683;53.360;9.736;2024-03-02T03:05:07;20.63;;;14.88;;
30647;SDS011;17683;53.360;9.736;2024-03-02T03:07:34;24.63;;;15.23;;
30647;SDS011;17683;53.360;9.736;2024-03-02T03:10:01;20.05;;;14.63;;
30647;SDS011;17683;53.360;9.736;2024-03-02T03:12:28;19.83;;;14.50;;
30647;SDS011;17683;53.360;9.736;2024-03-02T03:14:54;23.58;;;15.38;;
30647;SDS011;17683;53.360;9.736;2024-03-02T03:17:21;20.02;;;14.80;;
30647;SDS011;17683;53.360;9.736;2024-03-02T03:19:47;22.80;;;15.52;;
30647;SDS011;17683;53.360;9.736;2024-03-02T03:22:13;20.75;;;14.98;;
30647;SDS011;17683;53.360;9.736;2024-03-02T03:24:38;20.42;;;14.80;;
30647;SDS011;17683;53.360;9.736;2024-03-02T03:27:04;22.98;;;15.23;;
30647;SDS011;17683;53.360;9.736;2024-03-02T03:29:30;18.90;;;14.18;;
30647;SDS011;17683;53.360;9.736;2024-03-02T03:31:56;21.75;;;14.57;;
30647;SDS011;17683;53.360;9.736;2024-03-02T03:34:21;20.27;;;14.32;;
30647;SDS011;17683;53.360;9.736;2024-03-02T03:36:47;25.42;;;15.48;;
30647;SDS011;17683;53.360;9.736;2024-03-02T03:39:13;22.30;;;15.45;;
30647;SDS011;17683;53.360;9.736;2024-03-02T03:41:40;23.27;;;14.85;;
30647;SDS011;17683;53.360;9.736;2024-03-02T03:44:06;23.88;;;15.93;;
30647;SDS011;17683;53.360;9.736;2024-03-02T03:46:31;23.25;;;16.38;;
30647;SDS011;17683;53.360;9.736;2024-03-02T03:48:57;22.17;;;15.52;;
30647;SDS011;17683;53.360;9.736;2024-03-02T03:51:23;22.25;;;16.23;;
30647;SDS011;17683;53.360;9.736;2024-03-02T03:53:48;23.27;;;16.17;;
30647;SDS011;17683;53.360;9.736;2024-03-02T03:56:14;22.83;;;16.50;;
30647;SDS011;17683;53.360;9.736;2024-03-02T03:58:40;22.15;;;15.88;;
30647;SDS011;17683;53.360;9.736;2024-03-02T04:01:06;21.60;;;14.50;;
30647;SDS011;17683;53.360;9.736;2024-03-02T04:03:32;23.88;;;16.35;;
30647;SDS011;17683;53.360;9.736;2024-03-02T04:05:58;22.90;;;16.27;;
30647;SDS011;17683;53.360;9.736;2024-03-02T04:08:24;23.60;;;16.65;;
30647;SDS011;17683;53.360;9.736;2024-03-02T04:10:49;24.23;;;16.58;;
30647;SDS011;17683;53.360;9.736;2024-03-02T04:13:15;22.08;;;16.25;;
30647;SDS011;17683;53.360;9.736;2024-03-02T04:15:41;23.65;;;16.27;;
30647;SDS011;17683;53.360;9.736;2024-03-02T04:18:06;23.55;;;15.38;;
30647;SDS011;17683;53.360;9.736;2024-03-02T04:20:32;20.08;;;14.48;;
30647;SDS011;17683;53.360;9.736;2024-03-02T04:22:58;21.10;;;14.60;;
30647;SDS011;17683;53.360;9.736;2024-03-02T04:25:24;25.40;;;16.05;;
30647;SDS011;17683;53.360;9.736;2024-03-02T04:27:49;25.23;;;16.98;;
30647;SDS011;17683;53.360;9.736;2024-03-02T04:30:15;24.00;;;16.63;;
30647;SDS011;17683;53.360;9.736;2024-03-02T04:32:41;21.85;;;14.93;;
30647;SDS011;17683;53.360;9.736;2024-03-02T04:35:11;23.38;;;15.50;;
30647;SDS011;17683;53.360;9.736;2024-03-02T04:37:37;25.35;;;16.98;;
30647;SDS011;17683;53.360;9.736;2024-03-02T04:40:03;24.33;;;16.73;;
30647;SDS011;17683;53.360;9.736;2024-03-02T04:42:33;27.58;;;18.10;;
30647;SDS011;17683;53.360;9.736;2024-03-02T04:44:58;24.17;;;17.42;;
30647;SDS011;17683;53.360;9.736;2024-03-02T04:47:24;24.25;;;16.83;;
30647;SDS011;17683;53.360;9.736;2024-03-02T04:49:50;23.88;;;17.48;;
30647;SDS011;17683;53.360;9.736;2024-03-02T04:52:16;25.38;;;17.08;;
30647;SDS011;17683;53.360;9.736;2024-03-02T04:54:42;26.27;;;17.33;;
30647;SDS011;17683;53.360;9.736;2024-03-02T04:57:26;23.35;;;15.80;;
30647;SDS011;17683;53.360;9.736;2024-03-02T04:59:52;28.42;;;18.40;;
30647;SDS011;17683;53.360;9.736;2024-03-02T05:02:18;28.23;;;18.42;;
30647;SDS011;17683;53.360;9.736;2024-03-02T05:04:44;26.75;;;17.70;;
30647;SDS011;17683;53.360;9.736;2024-03-02T05:07:10;26.13;;;17.88;;
30647;SDS011;17683;53.360;9.736;2024-03-02T05:09:36;26.95;;;18.35;;
30647;SDS011;17683;53.360;9.736;2024-03-02T05:12:02;23.75;;;16.58;;
30647;SDS011;17683;53.360;9.736;2024-03-02T05:14:37;23.88;;;16.95;;
30647;SDS011;17683;53.360;9.736;2024-03-02T05:17:03;28.33;;;16.80;;
30647;SDS011;17683;53.360;9.736;2024-03-02T05:19:29;30.15;;;17.42;;
30647;SDS011;17683;53.360;9.736;2024-03-02T05:21:55;25.65;;;16.88;;
30647;SDS011;17683;53.360;9.736;2024-03-02T05:24:20;24.45;;;16.40;;
30647;SDS011;17683;53.360;9.736;2024-03-02T05:26:46;23.17;;;16.58;;
30647;SDS011;17683;53.360;9.736;2024-03-02T05:29:12;31.33;;;17.88;;
30647;SDS011;17683;53.360;9.736;2024-03-02T05:31:37;25.20;;;17.40;;
30647;SDS011;17683;53.360;9.736;2024-03-02T05:34:03;26.00;;;16.85;;
30647;SDS011;17683;53.360;9.736;2024-03-02T05:36:30;22.02;;;15.27;;
30647;SDS011;17683;53.360;9.736;2024-03-02T05:38:56;23.42;;;15.55;;
30647;SDS011;17683;53.360;9.736;2024-03-02T05:41:22;27.52;;;17.65;;
30647;SDS011;17683;53.360;9.736;2024-03-02T05:43:48;26.05;;;16.40;;
30647;SDS011;17683;53.360;9.736;2024-03-02T05:46:14;23.40;;;16.05;;
30647;SDS011;17683;53.360;9.736;2024-03-02T05:48:40;25.05;;;16.10;;
30647;SDS011;17683;53.360;9.736;2024-03-02T05:51:06;25.73;;;16.45;;
30647;SDS011;17683;53.360;9.736;2024-03-02T05:53:31;26.33;;;16.92;;
30647;SDS011;17683;53.360;9.736;2024-03-02T05:55:57;27.63;;;16.20;;
30647;SDS011;17683;53.360;9.736;2024-03-02T05:58:23;26.70;;;17.05;;
30647;SDS011;17683;53.360;9.736;2024-03-02T06:00:48;24.83;;;16.58;;
30647;SDS011;17683;53.360;9.736;2024-03-02T06:03:14;29.73;;;17.08;;
30647;SDS011;17683;53.360;9.736;2024-03-02T06:05:40;26.30;;;17.40;;
30647;SDS011;17683;53.360;9.736;2024-03-02T06:08:06;25.90;;;17.38;;
30647;SDS011;17683;53.360;9.736;2024-03-02T06:10:32;25.95;;;17.38;;
30647;SDS011;17683;53.360;9.736;2024-03-02T06:12:58;28.20;;;18.85;;
30647;SDS011;17683;53.360;9.736;2024-03-02T06:15:24;29.13;;;18.73;;
30647;SDS011;17683;53.360;9.736;2024-03-02T06:17:50;27.95;;;19.13;;
30647;SDS011;17683;53.360;9.736;2024-03-02T06:20:16;30.80;;;19.35;;
30647;SDS011;17683;53.360;9.736;2024-03-02T06:22:41;29.38;;;18.65;;
30647;SDS011;17683;53.360;9.736;2024-03-02T06:25:07;30.33;;;18.15;;
30647;SDS011;17683;53.360;9.736;2024-03-02T06:27:33;31.35;;;18.83;;
30647;SDS011;17683;53.360;9.736;2024-03-02T06:29:59;28.08;;;18.67;;
30647;SDS011;17683;53.360;9.736;2024-03-02T06:32:24;30.20;;;18.33;;
30647;SDS011;17683;53.360;9.736;2024-03-02T06:34:50;26.25;;;17.90;;
30647;SDS011;17683;53.360;9.736;2024-03-02T06:37:16;29.67;;;18.00;;
30647;SDS011;17683;53.360;9.736;2024-03-02T06:39:41;30.23;;;18.42;;
30647;SDS011;17683;53.360;9.736;2024-03-02T06:42:08;29.95;;;18.08;;
30647;SDS011;17683;53.360;9.736;2024-03-02T06:44:34;25.58;;;16.67;;
30647;SDS011;17683;53.360;9.736;2024-03-02T06:46:59;25.13;;;16.50;;
30647;SDS011;17683;53.360;9.736;2024-03-02T06:49:25;26.02;;;17.85;;
30647;SDS011;17683;53.360;9.736;2024-03-02T06:51:51;28.05;;;17.38;;
30647;SDS011;17683;53.360;9.736;2024-03-02T06:54:16;23.33;;;15.90;;
30647;SDS011;17683;53.360;9.736;2024-03-02T06:56:42;28.58;;;16.88;;
30647;SDS011;17683;53.360;9.736;2024-03-02T06:59:08;30.20;;;17.80;;
30647;SDS011;17683;53.360;9.736;2024-03-02T07:01:33;28.80;;;17.10;;
30647;SDS011;17683;53.360;9.736;2024-03-02T07:03:59;27.77;;;17.27;;
30647;SDS011;17683;53.360;9.736;2024-03-02T07:06:25;27.40;;;17.27;;
30647;SDS011;17683;53.360;9.736;2024-03-02T07:08:51;25.60;;;17.10;;
30647;SDS011;17683;53.360;9.736;2024-03-02T07:11:16;27.38;;;16.63;;
30647;SDS011;17683;53.360;9.736;2024-03-02T07:13:42;27.75;;;16.65;;
30647;SDS011;17683;53.360;9.736;2024-03-02T07:16:08;25.63;;;17.33;;
30647;SDS011;17683;53.360;9.736;2024-03-02T07:18:45;28.77;;;17.33;;
30647;SDS011;17683;53.360;9.736;2024-03-02T07:21:16;25.73;;;16.85;;
30647;SDS011;17683;53.360;9.736;2024-03-02T07:23:42;26.45;;;17.05;;
30647;SDS011;17683;53.360;9.736;2024-03-02T07:26:08;30.35;;;17.92;;
30647;SDS011;17683;53.360;9.736;2024-03-02T07:28:34;23.45;;;15.95;;
30647;SDS011;17683;53.360;9.736;2024-03-02T07:33:29;23.48;;;16.45;;
30647;SDS011;17683;53.360;9.736;2024-03-02T07:35:55;25.73;;;16.15;;
30647;SDS011;17683;53.360;9.736;2024-03-02T07:38:22;24.05;;;16.15;;
30647;SDS011;17683;53.360;9.736;2024-03-02T07:40:49;25.58;;;16.92;;
30647;SDS011;17683;53.360;9.736;2024-03-02T07:43:18;26.42;;;17.60;;
30647;SDS011;17683;53.360;9.736;2024-03-02T07:45:45;27.80;;;16.95;;
30647;SDS011;17683;53.360;9.736;2024-03-02T07:48:11;26.77;;;17.08;;
30647;SDS011;17683;53.360;9.736;2024-03-02T07:50:37;25.17;;;16.27;;
30647;SDS011;17683;53.360;9.736;2024-03-02T07:53:04;25.23;;;17.70;;
30647;SDS011;17683;53.360;9.736;2024-03-02T07:55:30;29.42;;;17.25;;
30647;SDS011;17683;53.360;9.736;2024-03-02T07:57:56;29.52;;;19.27;;
30647;SDS011;17683;53.360;9.736;2024-03-02T08:00:23;27.83;;;17.90;;
30647;SDS011;17683;53.360;9.736;2024-03-02T08:02:49;26.65;;;17.80;;
30647;SDS011;17683;53.360;9.736;2024-03-02T08:05:18;27.17;;;17.02;;
30647;SDS011;17683;53.360;9.736;2024-03-02T08:07:44;25.92;;;17.23;;
30647;SDS011;17683;53.360;9.736;2024-03-02T08:10:11;32.75;;;19.23;;
30647;SDS011;17683;53.360;9.736;2024-03-02T08:12:37;32.60;;;18.63;;
30647;SDS011;17683;53.360;9.736;2024-03-02T08:15:03;28.90;;;19.15;;
30647;SDS011;17683;53.360;9.736;2024-03-02T08:17:29;31.65;;;19.00;;
30647;SDS011;17683;53.360;9.736;2024-03-02T08:19:55;28.30;;;18.90;;
30647;SDS011;17683;53.360;9.736;2024-03-02T08:22:21;29.30;;;18.23;;
30647;SDS011;17683;53.360;9.736;2024-03-02T08:24:48;27.85;;;18.10;;
30647;SDS011;17683;53.360;9.736;2024-03-02T08:27:14;29.15;;;19.00;;
30647;SDS011;17683;53.360;9.736;2024-03-02T08:29:40;27.65;;;17.40;;
30647;SDS011;17683;53.360;9.736;2024-03-02T08:32:06;28.92;;;19.27;;
30647;SDS011;17683;53.360;9.736;2024-03-02T08:34:32;29.58;;;17.98;;
30647;SDS011;17683;53.360;9.736;2024-03-02T08:37:00;32.85;;;19.05;;
30647;SDS011;17683;53.360;9.736;2024-03-02T08:39:27;29.27;;;19.33;;
30647;SDS011;17683;53.360;9.736;2024-03-02T08:41:53;27.45;;;18.15;;
30647;SDS011;17683;53.360;9.736;2024-03-02T08:44:19;28.55;;;18.10;;
30647;SDS011;17683;53.360;9.736;2024-03-02T08:46:45;31.35;;;19.90;;
30647;SDS011;17683;53.360;9.736;2024-03-02T08:49:12;29.27;;;18.73;;
30647;SDS011;17683;53.360;9.736;2024-03-02T08:51:38;27.23;;;17.85;;
30647;SDS011;17683;53.360;9.736;2024-03-02T08:54:04;29.55;;;19.13;;
30647;SDS011;17683;53.360;9.736;2024-03-02T08:56:30;27.23;;;17.92;;
30647;SDS011;17683;53.360;9.736;2024-03-02T08:58:56;29.08;;;16.95;;
30647;SDS011;17683;53.360;9.736;2024-03-02T09:01:22;26.80;;;18.42;;
30647;SDS011;17683;53.360;9.736;2024-03-02T09:03:48;28.35;;;17.35;;
30647;SDS011;17683;53.360;9.736;2024-03-02T09:06:14;29.35;;;17.33;;
30647;SDS011;17683;53.360;9.736;2024-03-02T09:08:45;24.30;;;16.58;;
30647;SDS011;17683;53.360;9.736;2024-03-02T09:11:11;28.15;;;17.67;;
30647;SDS011;17683;53.360;9.736;2024-03-02T09:13:37;26.85;;;17.17;;
30647;SDS011;17683;53.360;9.736;2024-03-02T09:16:04;32.20;;;18.80;;
30647;SDS011;17683;53.360;9.736;2024-03-02T09:18:30;24.55;;;16.27;;
30647;SDS011;17683;53.360;9.736;2024-03-02T09:20:56;28.20;;;17.35;;
30647;SDS011;17683;53.360;9.736;2024-03-02T09:23:22;24.58;;;17.35;;
30647;SDS011;17683;53.360;9.736;2024-03-02T09:25:48;24.95;;;16.35;;
30647;SDS011;17683;53.360;9.736;2024-03-02T09:28:17;25.58;;;17.30;;
30647;SDS011;17683;53.360;9.736;2024-03-02T09:30:43;25.98;;;17.23;;
30647;SDS011;17683;53.360;9.736;2024-03-02T09:33:09;25.25;;;16.23;;
30647;SDS011;17683;53.360;9.736;2024-03-02T09:35:34;24.45;;;16.00;;
30647;SDS011;17683;53.360;9.736;2024-03-02T09:38:00;25.58;;;15.80;;
30647;SDS011;17683;53.360;9.736;2024-03-02T09:40:26;23.40;;;16.05;;
30647;SDS011;17683;53.360;9.736;2024-03-02T09:42:52;23.92;;;15.10;;
30647;SDS011;17683;53.360;9.736;2024-03-02T09:45:23;23.63;;;15.27;;
30647;SDS011;17683;53.360;9.736;2024-03-02T09:47:50;24.58;;;14.90;;
30647;SDS011;17683;53.360;9.736;2024-03-02T09:50:16;24.25;;;14.77;;
30647;SDS011;17683;53.360;9.736;2024-03-02T09:52:42;20.48;;;13.88;;
30647;SDS011;17683;53.360;9.736;2024-03-02T09:55:08;21.83;;;14.10;;
30647;SDS011;17683;53.360;9.736;2024-03-02T09:57:34;22.15;;;14.85;;
30647;SDS011;17683;53.360;9.736;2024-03-02T10:00:00;20.13;;;14.35;;
30647;SDS011;17683;53.360;9.736;2024-03-02T10:02:26;21.52;;;14.38;;
30647;SDS011;17683;53.360;9.736;2024-03-02T10:04:52;23.02;;;15.60;;
30647;SDS011;17683;53.360;9.736;2024-03-02T10:07:18;21.92;;;14.43;;
30647;SDS011;17683;53.360;9.736;2024-03-02T10:09:45;23.30;;;15.38;;
30647;SDS011;17683;53.360;9.736;2024-03-02T10:12:12;23.48;;;14.48;;
30647;SDS011;17683;53.360;9.736;2024-03-02T10:14:39;23.38;;;15.63;;
30647;SDS011;17683;53.360;9.736;2024-03-02T10:17:06;21.40;;;13.55;;
30647;SDS011;17683;53.360;9.736;2024-03-02T10:19:33;21.30;;;14.15;;
30647;SDS011;17683;53.360;9.736;2024-03-02T10:22:02;21.92;;;14.38;;
30647;SDS011;17683;53.360;9.736;2024-03-02T10:29:42;19.33;;;13.75;;
30647;SDS011;17683;53.360;9.736;2024-03-02T10:32:10;21.75;;;14.43;;
30647;SDS011;17683;53.360;9.736;2024-03-02T10:34:37;17.38;;;12.55;;
30647;SDS011;17683;53.360;9.736;2024-03-02T10:37:05;19.95;;;13.48;;
30647;SDS011;17683;53.360;9.736;2024-03-02T10:39:32;19.33;;;12.43;;
30647;SDS011;17683;53.360;9.736;2024-03-02T10:42:01;17.83;;;12.45;;
30647;SDS011;17683;53.360;9.736;2024-03-02T10:44:28;20.73;;;13.82;;
30647;SDS011;17683;53.360;9.736;2024-03-02T10:46:56;17.80;;;11.93;;
30647;SDS011;17683;53.360;9.736;2024-03-02T10:49:25;19.15;;;12.77;;
30647;SDS011;17683;53.360;9.736;2024-03-02T10:51:52;19.48;;;12.80;;
30647;SDS011;17683;53.360;9.736;2024-03-02T10:54:18;17.55;;;12.48;;
30647;SDS011;17683;53.360;9.736;2024-03-02T10:56:50;19.75;;;12.38;;
30647;SDS011;17683;53.360;9.736;2024-03-02T11:01:57;18.42;;;12.10;;
30647;SDS011;17683;53.360;9.736;2024-03-02T11:04:25;17.80;;;12.25;;
30647;SDS011;17683;53.360;9.736;2024-03-02T11:06:59;18.83;;;11.60;;
30647;SDS011;17683;53.360;9.736;2024-03-02T11:09:29;16.90;;;11.43;;
30647;SDS011;17683;53.360;9.736;2024-03-02T11:12:03;17.42;;;11.48;;
30647;SDS011;17683;53.360;9.736;2024-03-02T11:14:30;17.15;;;11.45;;
30647;SDS011;17683;53.360;9.736;2024-03-02T11:17:00;16.58;;;10.90;;
30647;SDS011;17683;53.360;9.736;2024-03-02T11:19:28;17.85;;;11.80;;
30647;SDS011;17683;53.360;9.736;2024-03-02T11:21:55;16.83;;;11.45;;
30647;SDS011;17683;53.360;9.736;2024-03-02T11:26:50;15.05;;;10.88;;
30647;SDS011;17683;53.360;9.736;2024-03-02T11:32:20;14.93;;;10.75;;
30647;SDS011;17683;53.360;9.736;2024-03-02T11:34:49;14.80;;;10.48;;
30647;SDS011;17683;53.360;9.736;2024-03-02T11:37:16;16.10;;;10.60;;
30647;SDS011;17683;53.360;9.736;2024-03-02T11:39:43;16.65;;;10.75;;
30647;SDS011;17683;53.360;9.736;2024-03-02T11:42:10;17.02;;;10.68;;
30647;SDS011;17683;53.360;9.736;2024-03-02T11:44:39;13.60;;;9.20;;
30647;SDS011;17683;53.360;9.736;2024-03-02T11:47:07;14.93;;;10.27;;
30647;SDS011;17683;53.360;9.736;2024-03-02T11:49:39;17.33;;;10.50;;
30647;SDS011;17683;53.360;9.736;2024-03-02T11:52:07;13.20;;;9.48;;
30647;SDS011;17683;53.360;9.736;2024-03-02T11:54:37;16.67;;;10.20;;
30647;SDS011;17683;53.360;9.736;2024-03-02T11:57:11;16.85;;;9.23;;
30647;SDS011;17683;53.360;9.736;2024-03-02T11:59:40;13.68;;;9.57;;
30647;SDS011;17683;53.360;9.736;2024-03-02T12:02:06;13.55;;;9.63;;
30647;SDS011;17683;53.360;9.736;2024-03-02T12:04:32;12.15;;;8.55;;
30647;SDS011;17683;53.360;9.736;2024-03-02T12:06:59;14.45;;;9.07;;
30647;SDS011;17683;53.360;9.736;2024-03-02T12:09:26;13.38;;;8.65;;
30647;SDS011;17683;53.360;9.736;2024-03-02T12:12:02;12.95;;;8.18;;
30647;SDS011;17683;53.360;9.736;2024-03-02T12:14:29;10.77;;;7.57;;
30647;SDS011;17683;53.360;9.736;2024-03-02T12:16:55;13.50;;;8.25;;
30647;SDS011;17683;53.360;9.736;2024-03-02T12:19:23;10.43;;;6.65;;
30647;SDS011;17683;53.360;9.736;2024-03-02T12:21:50;11.45;;;7.03;;
30647;SDS011;17683;53.360;9.736;2024-03-02T12:24:16;11.05;;;7.93;;
30647;SDS011;17683;53.360;9.736;2024-03-02T12:26:42;12.05;;;7.05;;
30647;SDS011;17683;53.360;9.736;2024-03-02T12:29:09;11.25;;;7.07;;
30647;SDS011;17683;53.360;9.736;2024-03-02T12:31:34;13.15;;;7.68;;
30647;SDS011;17683;53.360;9.736;2024-03-02T12:34:01;12.15;;;8.38;;
30647;SDS011;17683;53.360;9.736;2024-03-02T12:36:28;11.57;;;7.45;;
30647;SDS011;17683;53.360;9.736;2024-03-02T12:38:54;11.88;;;7.78;;
30647;SDS011;17683;53.360;9.736;2024-03-02T12:41:20;10.38;;;7.00;;
30647;SDS011;17683;53.360;9.736;2024-03-02T12:43:46;10.25;;;7.90;;
30647;SDS011;17683;53.360;9.736;2024-03-02T12:46:12;14.25;;;8.57;;
30647;SDS011;17683;53.360;9.736;2024-03-02T12:48:38;12.93;;;7.07;;
30647;SDS011;17683;53.360;9.736;2024-03-02T12:51:07;10.23;;;7.03;;
30647;SDS011;17683;53.360;9.736;2024-03-02T12:53:33;12.07;;;8.18;;
30647;SDS011;17683;53.360;9.736;2024-03-02T12:55:58;11.68;;;8.40;;
30647;SDS011;17683;53.360;9.736;2024-03-02T12:58:24;13.68;;;8.13;;
30647;SDS011;17683;53.360;9.736;2024-03-02T13:01:05;11.82;;;7.57;;
30647;SDS011;17683;53.360;9.736;2024-03-02T13:03:40;13.93;;;7.68;;
30647;SDS011;17683;53.360;9.736;2024-03-02T13:06:06;12.18;;;8.45;;
30647;SDS011;17683;53.360;9.736;2024-03-02T13:08:33;13.20;;;8.38;;
30647;SDS011;17683;53.360;9.736;2024-03-02T13:11:00;12.80;;;8.88;;
30647;SDS011;17683;53.360;9.736;2024-03-02T13:13:26;16.20;;;8.90;;
30647;SDS011;17683;53.360;9.736;2024-03-02T13:15:56;15.60;;;8.95;;
30647;SDS011;17683;53.360;9.736;2024-03-02T13:18:22;12.95;;;8.15;;
30647;SDS011;17683;53.360;9.736;2024-03-02T13:20:48;12.50;;;7.80;;
30647;SDS011;17683;53.360;9.736;2024-03-02T13:23:14;14.80;;;8.85;;
30647;SDS011;17683;53.360;9.736;2024-03-02T13:25:40;11.02;;;7.35;;
30647;SDS011;17683;53.360;9.736;2024-03-02T13:28:06;14.02;;;8.05;;
30647;SDS011;17683;53.360;9.736;2024-03-02T13:30:32;15.30;;;8.65;;
30647;SDS011;17683;53.360;9.736;2024-03-02T13:32:58;12.93;;;7.85;;
30647;SDS011;17683;53.360;9.736;2024-03-02T13:35:24;11.50;;;6.30;;
30647;SDS011;17683;53.360;9.736;2024-03-02T13:37:50;10.85;;;7.72;;
30647;SDS011;17683;53.360;9.736;2024-03-02T13:40:16;12.75;;;8.20;;
30647;SDS011;17683;53.360;9.736;2024-03-02T13:42:47;12.43;;;7.65;;
30647;SDS011;17683;53.360;9.736;2024-03-02T13:45:14;11.48;;;7.78;;
30647;SDS011;17683;53.360;9.736;2024-03-02T13:47:43;12.45;;;7.70;;
30647;SDS011;17683;53.360;9.736;2024-03-02T13:50:09;14.30;;;7.60;;
30647;SDS011;17683;53.360;9.736;2024-03-02T13:52:35;11.10;;;6.65;;
30647;SDS011;17683;53.360;9.736;2024-03-02T13:55:01;9.25;;;6.05;;
30647;SDS011;17683;53.360;9.736;2024-03-02T13:57:27;8.52;;;6.57;;
30647;SDS011;17683;53.360;9.736;2024-03-02T13:59:53;13.85;;;7.30;;
30647;SDS011;17683;53.360;9.736;2024-03-02T14:02:19;9.93;;;5.93;;
30647;SDS011;17683;53.360;9.736;2024-03-02T14:04:45;8.80;;;5.47;;
30647;SDS011;17683;53.360;9.736;2024-03-02T14:07:13;9.43;;;5.78;;
30647;SDS011;17683;53.360;9.736;2024-03-02T14:09:39;7.07;;;5.50;;
30647;SDS011;17683;53.360;9.736;2024-03-02T14:12:05;10.57;;;6.10;;
30647;SDS011;17683;53.360;9.736;2024-03-02T14:14:31;7.13;;;4.82;;
30647;SDS011;17683;53.360;9.736;2024-03-02T14:16:58;8.15;;;5.43;;
30647;SDS011;17683;53.360;9.736;2024-03-02T14:19:28;6.80;;;5.20;;
30647;SDS011;17683;53.360;9.736;2024-03-02T14:21:54;6.75;;;4.88;;
30647;SDS011;17683;53.360;9.736;2024-03-02T14:24:21;12.15;;;5.22;;
30647;SDS011;17683;53.360;9.736;2024-03-02T14:26:51;9.73;;;5.25;;
30647;SDS011;17683;53.360;9.736;2024-03-02T14:29:18;8.60;;;5.30;;
30647;SDS011;17683;53.360;9.736;2024-03-02T14:31:43;8.63;;;6.25;;
30647;SDS011;17683;53.360;9.736;2024-03-02T14:34:13;8.35;;;5.30;;
30647;SDS011;17683;53.360;9.736;2024-03-02T14:36:40;11.60;;;5.18;;
30647;SDS011;17683;53.360;9.736;2024-03-02T14:39:08;9.20;;;5.60;;
30647;SDS011;17683;53.360;9.736;2024-03-02T14:41:35;11.02;;;5.90;;
30647;SDS011;17683;53.360;9.736;2024-03-02T14:44:01;9.48;;;6.13;;
30647;SDS011;17683;53.360;9.736;2024-03-02T14:46:27;9.88;;;6.03;;